sensor_id;sensor_type;location;lat;lon;timestamp;temperature;humidity
5520;DHT22;2782;52.362;10.012;2022-07-06T00:05:29;22.90;54.90
5520;DHT22;2782;52.362;10.012;2022-07-06T00:12:11;22.90;54.60
5520;DHT22;2782;52.362;10.012;2022-07-06T00:18:54;22.90;54.50
5520;DHT22;2782;52.362;10.012;2022-07-06T00:25:35;22.90;54.70
5520;DHT22;2782;52.362;10.012;2022-07-06T00:32:17;22.90;54.70
5520;DHT22;2782;52.362;10.012;2022-07-06T00:39:00;22.90;54.70
5520;DHT22;2782;52.362;10.012;2022-07-06T00:45:42;22.90;54.70
5520;DHT22;2782;52.362;10.012;2022-07-06T00:52:24;22.90;54.70
5520;DHT22;2782;52.362;10.012;2022-07-06T00:59:07;22.90;54.60
5520;DHT22;2782;52.362;10.012;2022-07-06T01:05:50;22.90;54.60
5520;DHT22;2782;52.362;10.012;2022-07-06T01:12:32;22.90;55.00
5520;DHT22;2782;52.362;10.012;2022-07-06T01:19:16;22.90;54.20
5520;DHT22;2782;52.362;10.012;2022-07-06T01:25:59;22.90;54.20
5520;DHT22;2782;52.362;10.012;2022-07-06T01:32:45;22.90;54.20
5520;DHT22;2782;52.362;10.012;2022-07-06T01:39:29;22.90;54.00
5520;DHT22;2782;52.362;10.012;2022-07-06T01:46:12;22.80;53.60
5520;DHT22;2782;52.362;10.012;2022-07-06T01:52:54;22.90;53.50
5520;DHT22;2782;52.362;10.012;2022-07-06T01:59:36;22.90;53.20
5520;DHT22;2782;52.362;10.012;2022-07-06T02:06:19;22.80;53.20
5520;DHT22;2782;52.362;10.012;2022-07-06T02:13:00;22.80;53.20
5520;DHT22;2782;52.362;10.012;2022-07-06T02:19:42;22.80;52.80
5520;DHT22;2782;52.362;10.012;2022-07-06T02:26:25;22.80;53.40
5520;DHT22;2782;52.362;10.012;2022-07-06T02:33:06;22.80;53.20
5520;DHT22;2782;52.362;10.012;2022-07-06T02:39:48;22.80;53.10
5520;DHT22;2782;52.362;10.012;2022-07-06T02:46:31;22.80;52.50
5520;DHT22;2782;52.362;10.012;2022-07-06T02:53:13;22.80;52.50
5520;DHT22;2782;52.362;10.012;2022-07-06T02:59:55;22.80;52.30
5520;DHT22;2782;52.362;10.012;2022-07-06T03:06:37;22.80;52.30
5520;DHT22;2782;52.362;10.012;2022-07-06T03:13:19;22.80;52.20
5520;DHT22;2782;52.362;10.012;2022-07-06T03:20:01;22.80;52.20
5520;DHT22;2782;52.362;10.012;2022-07-06T03:26:44;22.80;52.20
5520;DHT22;2782;52.362;10.012;2022-07-06T03:33:26;22.80;52.30
5520;DHT22;2782;52.362;10.012;2022-07-06T03:40:08;22.80;52.20
5520;DHT22;2782;52.362;10.012;2022-07-06T03:46:51;22.70;52.10
5520;DHT22;2782;52.362;10.012;2022-07-06T03:53:35;22.70;52.10
5520;DHT22;2782;52.362;10.012;2022-07-06T04:00:17;22.80;52.20
5520;DHT22;2782;52.362;10.012;2022-07-06T04:07:00;22.80;52.10
5520;DHT22;2782;52.362;10.012;2022-07-06T04:13:42;22.80;52.00
5520;DHT22;2782;52.362;10.012;2022-07-06T04:20:24;23.00;52.60
5520;DHT22;2782;52.362;10.012;2022-07-06T04:27:07;23.20;52.00
5520;DHT22;2782;52.362;10.012;2022-07-06T04:33:49;23.20;51.90
5520;DHT22;2782;52.362;10.012;2022-07-06T04:40:31;23.10;52.30
5520;DHT22;2782;52.362;10.012;2022-07-06T04:47:14;23.20;52.70
5520;DHT22;2782;52.362;10.012;2022-07-06T04:53:56;23.20;51.00
5520;DHT22;2782;52.362;10.012;2022-07-06T05:00:37;22.90;51.60
5520;DHT22;2782;52.362;10.012;2022-07-06T05:07:20;22.70;51.80
5520;DHT22;2782;52.362;10.012;2022-07-06T05:14:02;22.60;52.00
5520;DHT22;2782;52.362;10.012;2022-07-06T05:20:44;22.60;52.30
5520;DHT22;2782;52.362;10.012;2022-07-06T05:27:27;22.60;52.40
5520;DHT22;2782;52.362;10.012;2022-07-06T05:34:08;22.50;52.70
5520;DHT22;2782;52.362;10.012;2022-07-06T05:40:50;22.40;53.50
5520;DHT22;2782;52.362;10.012;2022-07-06T05:47:33;22.30;53.00
5520;DHT22;2782;52.362;10.012;2022-07-06T05:54:32;22.20;53.00
5520;DHT22;2782;52.362;10.012;2022-07-06T06:01:14;22.00;53.50
5520;DHT22;2782;52.362;10.012;2022-07-06T06:07:57;21.90;53.60
5520;DHT22;2782;52.362;10.012;2022-07-06T06:14:41;21.70;54.20
5520;DHT22;2782;52.362;10.012;2022-07-06T06:21:23;21.60;54.90
5520;DHT22;2782;52.362;10.012;2022-07-06T06:28:07;21.60;54.40
5520;DHT22;2782;52.362;10.012;2022-07-06T06:34:49;21.80;54.90
5520;DHT22;2782;52.362;10.012;2022-07-06T06:41:31;22.00;54.50
5520;DHT22;2782;52.362;10.012;2022-07-06T06:48:13;22.20;54.40
5520;DHT22;2782;52.362;10.012;2022-07-06T06:54:55;22.30;54.00
5520;DHT22;2782;52.362;10.012;2022-07-06T07:01:37;22.30;53.70
5520;DHT22;2782;52.362;10.012;2022-07-06T07:08:20;22.40;53.80
5520;DHT22;2782;52.362;10.012;2022-07-06T07:15:02;22.40;53.80
5520;DHT22;2782;52.362;10.012;2022-07-06T07:21:43;22.40;53.60
5520;DHT22;2782;52.362;10.012;2022-07-06T07:28:26;22.40;53.40
5520;DHT22;2782;52.362;10.012;2022-07-06T07:35:08;22.50;53.40
5520;DHT22;2782;52.362;10.012;2022-07-06T07:41:51;22.50;53.20
5520;DHT22;2782;52.362;10.012;2022-07-06T07:48:34;22.50;53.20
5520;DHT22;2782;52.362;10.012;2022-07-06T07:55:16;22.50;52.90
5520;DHT22;2782;52.362;10.012;2022-07-06T08:01:58;22.50;52.70
5520;DHT22;2782;52.362;10.012;2022-07-06T08:08:41;22.50;52.50
5520;DHT22;2782;52.362;10.012;2022-07-06T08:15:22;22.50;52.40
5520;DHT22;2782;52.362;10.012;2022-07-06T08:22:04;22.50;52.30
5520;DHT22;2782;52.362;10.012;2022-07-06T08:28:49;22.50;52.50
5520;DHT22;2782;52.362;10.012;2022-07-06T08:35:30;22.60;52.40
5520;DHT22;2782;52.362;10.012;2022-07-06T08:42:12;22.60;53.20
5520;DHT22;2782;52.362;10.012;2022-07-06T08:48:57;22.70;53.40
5520;DHT22;2782;52.362;10.012;2022-07-06T08:55:41;22.70;53.50
5520;DHT22;2782;52.362;10.012;2022-07-06T09:02:24;22.70;53.30
5520;DHT22;2782;52.362;10.012;2022-07-06T09:09:10;22.70;53.20
5520;DHT22;2782;52.362;10.012;2022-07-06T09:15:51;22.70;49.20
5520;DHT22;2782;52.362;10.012;2022-07-06T09:22:33;22.40;47.50
5520;DHT22;2782;52.362;10.012;2022-07-06T09:29:16;22.30;50.10
5520;DHT22;2782;52.362;10.012;2022-07-06T09:35:57;22.40;50.00
5520;DHT22;2782;52.362;10.012;2022-07-06T09:42:41;22.40;48.00
5520;DHT22;2782;52.362;10.012;2022-07-06T09:49:25;22.30;47.30
5520;DHT22;2782;52.362;10.012;2022-07-06T09:56:06;22.10;47.20
5520;DHT22;2782;52.362;10.012;2022-07-06T10:02:49;22.00;47.10
5520;DHT22;2782;52.362;10.012;2022-07-06T10:09:32;21.90;46.60
5520;DHT22;2782;52.362;10.012;2022-07-06T10:16:15;21.80;46.40
5520;DHT22;2782;52.362;10.012;2022-07-06T10:22:58;21.70;46.30
5520;DHT22;2782;52.362;10.012;2022-07-06T10:29:42;21.70;47.30
5520;DHT22;2782;52.362;10.012;2022-07-06T10:36:24;21.70;46.90
5520;DHT22;2782;52.362;10.012;2022-07-06T10:43:09;21.70;46.90
5520;DHT22;2782;52.362;10.012;2022-07-06T10:49:59;21.70;46.90
5520;DHT22;2782;52.362;10.012;2022-07-06T10:56:43;21.60;46.80
5520;DHT22;2782;52.362;10.012;2022-07-06T11:03:37;21.60;47.30
5520;DHT22;2782;52.362;10.012;2022-07-06T11:10:22;21.60;46.80
5520;DHT22;2782;52.362;10.012;2022-07-06T11:17:04;21.70;46.30
5520;DHT22;2782;52.362;10.012;2022-07-06T11:23:50;21.70;45.70
5520;DHT22;2782;52.362;10.012;2022-07-06T11:30:34;21.60;44.80
5520;DHT22;2782;52.362;10.012;2022-07-06T11:37:16;21.60;44.80
5520;DHT22;2782;52.362;10.012;2022-07-06T11:43:58;21.70;44.90
5520;DHT22;2782;52.362;10.012;2022-07-06T11:50:42;21.70;44.80
5520;DHT22;2782;52.362;10.012;2022-07-06T11:57:23;21.70;44.60
5520;DHT22;2782;52.362;10.012;2022-07-06T12:04:05;21.70;44.70
5520;DHT22;2782;52.362;10.012;2022-07-06T12:10:49;21.60;45.20
5520;DHT22;2782;52.362;10.012;2022-07-06T12:17:30;21.60;45.50
5520;DHT22;2782;52.362;10.012;2022-07-06T12:24:18;21.70;45.30
5520;DHT22;2782;52.362;10.012;2022-07-06T12:31:01;21.60;45.30
5520;DHT22;2782;52.362;10.012;2022-07-06T12:37:54;21.60;45.90
5520;DHT22;2782;52.362;10.012;2022-07-06T12:44:42;21.60;45.90
5520;DHT22;2782;52.362;10.012;2022-07-06T12:51:26;21.60;45.80
5520;DHT22;2782;52.362;10.012;2022-07-06T12:58:18;21.70;45.80
5520;DHT22;2782;52.362;10.012;2022-07-06T13:05:01;21.70;45.70
5520;DHT22;2782;52.362;10.012;2022-07-06T13:11:44;21.70;45.80
5520;DHT22;2782;52.362;10.012;2022-07-06T13:18:26;21.80;45.60
5520;DHT22;2782;52.362;10.012;2022-07-06T13:25:09;21.80;45.60
5520;DHT22;2782;52.362;10.012;2022-07-06T13:31:52;21.90;46.20
5520;DHT22;2782;52.362;10.012;2022-07-06T13:38:34;21.90;45.90
5520;DHT22;2782;52.362;10.012;2022-07-06T13:45:15;21.90;44.70
5520;DHT22;2782;52.362;10.012;2022-07-06T13:51:58;21.90;45.40
5520;DHT22;2782;52.362;10.012;2022-07-06T13:58:44;21.90;45.20
5520;DHT22;2782;52.362;10.012;2022-07-06T14:05:28;22.00;45.40
5520;DHT22;2782;52.362;10.012;2022-07-06T14:12:11;22.00;45.20
5520;DHT22;2782;52.362;10.012;2022-07-06T14:18:52;22.00;45.10
5520;DHT22;2782;52.362;10.012;2022-07-06T14:25:34;22.00;44.40
5520;DHT22;2782;52.362;10.012;2022-07-06T14:32:18;22.00;44.30
5520;DHT22;2782;52.362;10.012;2022-07-06T14:39:00;22.00;44.30
5520;DHT22;2782;52.362;10.012;2022-07-06T14:46:03;22.10;44.40
5520;DHT22;2782;52.362;10.012;2022-07-06T14:53:04;22.10;45.10
5520;DHT22;2782;52.362;10.012;2022-07-06T14:59:46;22.20;45.00
5520;DHT22;2782;52.362;10.012;2022-07-06T15:06:27;22.20;44.80
5520;DHT22;2782;52.362;10.012;2022-07-06T15:13:11;22.20;45.20
5520;DHT22;2782;52.362;10.012;2022-07-06T15:19:52;22.20;45.20
5520;DHT22;2782;52.362;10.012;2022-07-06T15:26:34;22.20;46.00
5520;DHT22;2782;52.362;10.012;2022-07-06T15:33:17;22.20;45.40
5520;DHT22;2782;52.362;10.012;2022-07-06T15:39:58;22.20;45.10
5520;DHT22;2782;52.362;10.012;2022-07-06T15:46:40;22.20;45.20
5520;DHT22;2782;52.362;10.012;2022-07-06T15:53:23;22.20;45.00
5520;DHT22;2782;52.362;10.012;2022-07-06T16:00:06;22.20;45.10
5520;DHT22;2782;52.362;10.012;2022-07-06T16:06:48;22.20;44.80
5520;DHT22;2782;52.362;10.012;2022-07-06T16:13:31;22.30;45.30
5520;DHT22;2782;52.362;10.012;2022-07-06T16:20:13;22.40;44.80
5520;DHT22;2782;52.362;10.012;2022-07-06T16:26:55;22.30;44.70
5520;DHT22;2782;52.362;10.012;2022-07-06T16:33:38;22.20;44.60
5520;DHT22;2782;52.362;10.012;2022-07-06T16:40:19;22.20;44.80
5520;DHT22;2782;52.362;10.012;2022-07-06T16:47:01;22.20;45.00
5520;DHT22;2782;52.362;10.012;2022-07-06T16:53:44;22.20;45.20
5520;DHT22;2782;52.362;10.012;2022-07-06T17:00:26;22.20;45.00
5520;DHT22;2782;52.362;10.012;2022-07-06T17:07:07;22.20;44.70
5520;DHT22;2782;52.362;10.012;2022-07-06T17:13:50;22.10;45.20
5520;DHT22;2782;52.362;10.012;2022-07-06T17:20:32;22.30;46.30
5520;DHT22;2782;52.362;10.012;2022-07-06T17:27:14;22.40;45.90
5520;DHT22;2782;52.362;10.012;2022-07-06T17:33:58;22.30;45.80
5520;DHT22;2782;52.362;10.012;2022-07-06T17:40:43;22.20;45.40
5520;DHT22;2782;52.362;10.012;2022-07-06T17:47:24;22.10;45.10
5520;DHT22;2782;52.362;10.012;2022-07-06T17:54:07;22.10;45.20
5520;DHT22;2782;52.362;10.012;2022-07-06T18:00:50;22.00;45.20
5520;DHT22;2782;52.362;10.012;2022-07-06T18:07:33;22.00;45.80
5520;DHT22;2782;52.362;10.012;2022-07-06T18:14:16;22.00;46.10
5520;DHT22;2782;52.362;10.012;2022-07-06T18:20:57;22.00;46.20
5520;DHT22;2782;52.362;10.012;2022-07-06T18:27:39;22.00;46.40
5520;DHT22;2782;52.362;10.012;2022-07-06T18:34:22;21.90;46.40
5520;DHT22;2782;52.362;10.012;2022-07-06T18:41:04;21.90;46.10
5520;DHT22;2782;52.362;10.012;2022-07-06T18:47:46;21.80;46.10
5520;DHT22;2782;52.362;10.012;2022-07-06T18:54:29;21.90;46.20
5520;DHT22;2782;52.362;10.012;2022-07-06T19:01:10;21.90;45.70
5520;DHT22;2782;52.362;10.012;2022-07-06T19:07:52;21.80;46.20
5520;DHT22;2782;52.362;10.012;2022-07-06T19:14:35;21.70;46.50
5520;DHT22;2782;52.362;10.012;2022-07-06T19:21:17;21.60;46.60
5520;DHT22;2782;52.362;10.012;2022-07-06T19:27:59;21.50;47.00
5520;DHT22;2782;52.362;10.012;2022-07-06T19:34:42;21.40;47.20
5520;DHT22;2782;52.362;10.012;2022-07-06T19:41:24;21.40;47.60
5520;DHT22;2782;52.362;10.012;2022-07-06T19:48:06;21.40;47.90
5520;DHT22;2782;52.362;10.012;2022-07-06T19:54:50;21.40;48.00
5520;DHT22;2782;52.362;10.012;2022-07-06T20:01:32;21.40;48.70
5520;DHT22;2782;52.362;10.012;2022-07-06T20:08:14;21.40;48.40
5520;DHT22;2782;52.362;10.012;2022-07-06T20:14:57;21.60;48.60
5520;DHT22;2782;52.362;10.012;2022-07-06T20:21:38;21.80;48.80
5520;DHT22;2782;52.362;10.012;2022-07-06T20:28:20;21.90;48.70
5520;DHT22;2782;52.362;10.012;2022-07-06T20:35:04;21.90;48.70
5520;DHT22;2782;52.362;10.012;2022-07-06T20:41:46;22.00;48.70
5520;DHT22;2782;52.362;10.012;2022-07-06T20:48:29;22.00;48.90
5520;DHT22;2782;52.362;10.012;2022-07-06T20:55:12;22.00;49.10
5520;DHT22;2782;52.362;10.012;2022-07-06T21:01:55;22.10;49.50
5520;DHT22;2782;52.362;10.012;2022-07-06T21:08:37;22.00;49.50
5520;DHT22;2782;52.362;10.012;2022-07-06T21:15:20;22.10;49.50
5520;DHT22;2782;52.362;10.012;2022-07-06T21:22:02;22.10;49.60
5520;DHT22;2782;52.362;10.012;2022-07-06T21:28:43;22.10;49.50
5520;DHT22;2782;52.362;10.012;2022-07-06T21:35:26;22.10;49.60
5520;DHT22;2782;52.362;10.012;2022-07-06T21:42:08;22.10;49.70
5520;DHT22;2782;52.362;10.012;2022-07-06T21:48:50;22.10;49.90
5520;DHT22;2782;52.362;10.012;2022-07-06T21:55:32;22.10;50.00
5520;DHT22;2782;52.362;10.012;2022-07-06T22:02:14;22.10;50.10
5520;DHT22;2782;52.362;10.012;2022-07-06T22:08:56;22.10;50.20
5520;DHT22;2782;52.362;10.012;2022-07-06T22:15:39;22.10;50.50
5520;DHT22;2782;52.362;10.012;2022-07-06T22:22:20;22.10;50.60
5520;DHT22;2782;52.362;10.012;2022-07-06T22:29:02;22.10;50.70
5520;DHT22;2782;52.362;10.012;2022-07-06T22:35:45;22.10;50.80
5520;DHT22;2782;52.362;10.012;2022-07-06T22:42:27;22.10;51.10
5520;DHT22;2782;52.362;10.012;2022-07-06T22:49:09;22.10;51.20
5520;DHT22;2782;52.362;10.012;2022-07-06T22:55:52;22.10;52.10
5520;DHT22;2782;52.362;10.012;2022-07-06T23:02:34;22.10;51.80
5520;DHT22;2782;52.362;10.012;2022-07-06T23:09:16;22.10;52.00
5520;DHT22;2782;52.362;10.012;2022-07-06T23:15:59;22.10;52.00
5520;DHT22;2782;52.362;10.012;2022-07-06T23:22:41;22.10;52.00
5520;DHT22;2782;52.362;10.012;2022-07-06T23:29:23;22.10;52.10
5520;DHT22;2782;52.362;10.012;2022-07-06T23:36:06;22.10;52.20
5520;DHT22;2782;52.362;10.012;2022-07-06T23:42:48;22.10;52.20
5520;DHT22;2782;52.362;10.012;2022-07-06T23:49:29;22.10;52.20
5520;DHT22;2782;52.362;10.012;2022-07-06T23:56:12;22.00;52.10
